sensor_id;sensor_type;location;lat;lon;timestamp;temperature;humidity
46438;DHT22;32137;48.728;9.142;2023-04-24T00:00:54;11.60;99.90
46438;DHT22;32137;48.728;9.142;2023-04-24T00:03:24;11.50;99.90
46438;DHT22;32137;48.728;9.142;2023-04-24T00:05:50;11.40;99.90
46438;DHT22;32137;48.728;9.142;2023-04-24T00:08:16;11.30;99.90
46438;DHT22;32137;48.728;9.142;2023-04-24T00:10:42;11.40;99.90
46438;DHT22;32137;48.728;9.142;2023-04-24T00:13:07;11.60;99.90
46438;DHT22;32137;48.728;9.142;2023-04-24T00:15:33;11.60;99.90
46438;DHT22;32137;48.728;9.142;2023-04-24T00:17:58;11.60;99.90
46438;DHT22;32137;48.728;9.142;2023-04-24T00:20:24;11.60;99.90
46438;DHT22;32137;48.728;9.142;2023-04-24T00:22:49;11.40;99.90
46438;DHT22;32137;48.728;9.142;2023-04-24T00:25:15;11.40;99.90
46438;DHT22;32137;48.728;9.142;2023-04-24T00:27:40;11.50;99.90
46438;DHT22;32137;48.728;9.142;2023-04-24T00:30:06;11.50;99.90
46438;DHT22;32137;48.728;9.142;2023-04-24T00:32:31;11.50;99.90
46438;DHT22;32137;48.728;9.142;2023-04-24T00:34:57;11.50;99.90
46438;DHT22;32137;48.728;9.142;2023-04-24T00:37:22;11.20;99.90
46438;DHT22;32137;48.728;9.142;2023-04-24T00:39:48;11.20;99.90
46438;DHT22;32137;48.728;9.142;2023-04-24T00:42:13;11.10;99.90
46438;DHT22;32137;48.728;9.142;2023-04-24T00:44:39;11.10;99.90
46438;DHT22;32137;48.728;9.142;2023-04-24T00:47:04;11.10;99.90
46438;DHT22;32137;48.728;9.142;2023-04-24T00:49:30;11.30;99.90
46438;DHT22;32137;48.728;9.142;2023-04-24T00:51:55;11.30;99.90
46438;DHT22;32137;48.728;9.142;2023-04-24T00:54:22;11.20;99.90
46438;DHT22;32137;48.728;9.142;2023-04-24T00:56:47;11.10;99.90
46438;DHT22;32137;48.728;9.142;2023-04-24T00:59:14;11.20;99.90
46438;DHT22;32137;48.728;9.142;2023-04-24T01:01:41;11.10;99.90
46438;DHT22;32137;48.728;9.142;2023-04-24T01:04:07;11.20;99.90
46438;DHT22;32137;48.728;9.142;2023-04-24T01:06:33;11.10;99.90
46438;DHT22;32137;48.728;9.142;2023-04-24T01:08:59;11.10;99.90
46438;DHT22;32137;48.728;9.142;2023-04-24T01:11:25;11.30;99.90
46438;DHT22;32137;48.728;9.142;2023-04-24T01:13:51;11.30;99.90
46438;DHT22;32137;48.728;9.142;2023-04-24T01:16:16;11.30;99.90
46438;DHT22;32137;48.728;9.142;2023-04-24T01:18:43;11.10;99.90
46438;DHT22;32137;48.728;9.142;2023-04-24T01:21:08;11.20;99.90
46438;DHT22;32137;48.728;9.142;2023-04-24T01:23:34;11.30;99.90
46438;DHT22;32137;48.728;9.142;2023-04-24T01:26:00;11.30;99.90
46438;DHT22;32137;48.728;9.142;2023-04-24T01:28:25;11.30;99.90
46438;DHT22;32137;48.728;9.142;2023-04-24T01:30:51;11.10;99.90
46438;DHT22;32137;48.728;9.142;2023-04-24T01:33:17;11.10;99.90
46438;DHT22;32137;48.728;9.142;2023-04-24T01:35:43;11.30;99.90
46438;DHT22;32137;48.728;9.142;2023-04-24T01:38:08;11.10;99.90
46438;DHT22;32137;48.728;9.142;2023-04-24T01:40:34;11.00;99.90
46438;DHT22;32137;48.728;9.142;2023-04-24T01:43:00;11.00;99.90
46438;DHT22;32137;48.728;9.142;2023-04-24T01:45:26;11.20;99.90
46438;DHT22;32137;48.728;9.142;2023-04-24T01:47:51;11.20;99.90
46438;DHT22;32137;48.728;9.142;2023-04-24T01:50:17;11.20;99.90
46438;DHT22;32137;48.728;9.142;2023-04-24T01:52:43;11.40;99.90
46438;DHT22;32137;48.728;9.142;2023-04-24T01:55:09;11.00;99.90
46438;DHT22;32137;48.728;9.142;2023-04-24T01:57:35;11.00;99.90
46438;DHT22;32137;48.728;9.142;2023-04-24T02:00:00;11.00;99.90
46438;DHT22;32137;48.728;9.142;2023-04-24T02:02:26;11.30;99.90
46438;DHT22;32137;48.728;9.142;2023-04-24T02:04:53;11.30;99.90
46438;DHT22;32137;48.728;9.142;2023-04-24T02:07:19;11.10;99.90
46438;DHT22;32137;48.728;9.142;2023-04-24T02:09:44;11.20;99.90
46438;DHT22;32137;48.728;9.142;2023-04-24T02:12:10;11.10;99.90
46438;DHT22;32137;48.728;9.142;2023-04-24T02:14:35;11.30;99.90
46438;DHT22;32137;48.728;9.142;2023-04-24T02:17:01;11.20;99.90
46438;DHT22;32137;48.728;9.142;2023-04-24T02:19:26;11.20;99.90
46438;DHT22;32137;48.728;9.142;2023-04-24T02:21:52;11.30;99.90
46438;DHT22;32137;48.728;9.142;2023-04-24T02:24:17;11.20;99.90
46438;DHT22;32137;48.728;9.142;2023-04-24T02:26:43;11.20;99.90
46438;DHT22;32137;48.728;9.142;2023-04-24T02:29:08;11.20;99.90
46438;DHT22;32137;48.728;9.142;2023-04-24T02:31:33;11.00;99.90
46438;DHT22;32137;48.728;9.142;2023-04-24T02:33:59;10.90;99.90
46438;DHT22;32137;48.728;9.142;2023-04-24T02:36:24;10.90;99.90
46438;DHT22;32137;48.728;9.142;2023-04-24T02:38:50;11.00;99.90
46438;DHT22;32137;48.728;9.142;2023-04-24T02:41:15;11.10;99.90
46438;DHT22;32137;48.728;9.142;2023-04-24T02:43:41;11.10;99.90
46438;DHT22;32137;48.728;9.142;2023-04-24T02:46:06;11.00;99.90
46438;DHT22;32137;48.728;9.142;2023-04-24T02:48:32;11.10;99.90
46438;DHT22;32137;48.728;9.142;2023-04-24T02:50:57;11.10;99.90
46438;DHT22;32137;48.728;9.142;2023-04-24T02:53:23;11.30;99.90
46438;DHT22;32137;48.728;9.142;2023-04-24T02:55:48;11.10;99.90
46438;DHT22;32137;48.728;9.142;2023-04-24T02:58:14;11.30;99.90
46438;DHT22;32137;48.728;9.142;2023-04-24T03:00:39;11.30;99.90
46438;DHT22;32137;48.728;9.142;2023-04-24T03:03:05;11.40;99.90
46438;DHT22;32137;48.728;9.142;2023-04-24T03:05:31;11.30;99.90
46438;DHT22;32137;48.728;9.142;2023-04-24T03:07:56;11.10;99.90
46438;DHT22;32137;48.728;9.142;2023-04-24T03:10:22;11.20;99.90
46438;DHT22;32137;48.728;9.142;2023-04-24T03:12:50;11.20;99.90
46438;DHT22;32137;48.728;9.142;2023-04-24T03:15:15;11.20;99.90
46438;DHT22;32137;48.728;9.142;2023-04-24T03:17:41;11.00;99.90
46438;DHT22;32137;48.728;9.142;2023-04-24T03:20:07;10.90;99.90
46438;DHT22;32137;48.728;9.142;2023-04-24T03:22:33;11.10;99.90
46438;DHT22;32137;48.728;9.142;2023-04-24T03:24:59;10.80;99.90
46438;DHT22;32137;48.728;9.142;2023-04-24T03:27:25;10.80;99.90
46438;DHT22;32137;48.728;9.142;2023-04-24T03:29:51;10.90;99.90
46438;DHT22;32137;48.728;9.142;2023-04-24T03:32:23;10.80;99.90
46438;DHT22;32137;48.728;9.142;2023-04-24T03:34:49;10.80;99.90
46438;DHT22;32137;48.728;9.142;2023-04-24T03:37:15;10.90;99.90
46438;DHT22;32137;48.728;9.142;2023-04-24T03:39:41;10.90;99.90
46438;DHT22;32137;48.728;9.142;2023-04-24T03:42:06;10.90;99.90
46438;DHT22;32137;48.728;9.142;2023-04-24T03:44:33;10.80;99.90
46438;DHT22;32137;48.728;9.142;2023-04-24T03:46:59;10.70;99.90
46438;DHT22;32137;48.728;9.142;2023-04-24T03:49:24;10.60;99.90
46438;DHT22;32137;48.728;9.142;2023-04-24T03:51:50;10.60;99.90
46438;DHT22;32137;48.728;9.142;2023-04-24T03:54:17;10.80;99.90
46438;DHT22;32137;48.728;9.142;2023-04-24T03:56:43;10.70;99.90
46438;DHT22;32137;48.728;9.142;2023-04-24T03:59:08;10.70;99.90
46438;DHT22;32137;48.728;9.142;2023-04-24T04:01:33;10.50;99.90
46438;DHT22;32137;48.728;9.142;2023-04-24T04:04:02;10.70;99.90
46438;DHT22;32137;48.728;9.142;2023-04-24T04:06:27;10.60;99.90
46438;DHT22;32137;48.728;9.142;2023-04-24T04:08:53;10.50;99.90
46438;DHT22;32137;48.728;9.142;2023-04-24T04:11:19;10.60;99.90
46438;DHT22;32137;48.728;9.142;2023-04-24T04:13:45;10.50;99.90
46438;DHT22;32137;48.728;9.142;2023-04-24T04:16:13;10.60;99.90
46438;DHT22;32137;48.728;9.142;2023-04-24T04:18:38;10.50;99.90
46438;DHT22;32137;48.728;9.142;2023-04-24T04:21:04;10.80;99.90
46438;DHT22;32137;48.728;9.142;2023-04-24T04:23:29;10.80;99.90
46438;DHT22;32137;48.728;9.142;2023-04-24T04:25:55;10.80;99.90
46438;DHT22;32137;48.728;9.142;2023-04-24T04:28:20;10.60;99.90
46438;DHT22;32137;48.728;9.142;2023-04-24T04:30:46;10.60;99.90
46438;DHT22;32137;48.728;9.142;2023-04-24T04:33:12;10.70;99.90
46438;DHT22;32137;48.728;9.142;2023-04-24T04:35:38;10.90;99.90
46438;DHT22;32137;48.728;9.142;2023-04-24T04:38:03;10.90;99.90
46438;DHT22;32137;48.728;9.142;2023-04-24T04:40:29;10.50;99.90
46438;DHT22;32137;48.728;9.142;2023-04-24T04:42:55;10.50;99.90
46438;DHT22;32137;48.728;9.142;2023-04-24T04:45:21;10.40;99.90
46438;DHT22;32137;48.728;9.142;2023-04-24T04:47:46;10.30;99.90
46438;DHT22;32137;48.728;9.142;2023-04-24T04:50:12;10.30;99.90
46438;DHT22;32137;48.728;9.142;2023-04-24T04:52:38;10.20;99.90
46438;DHT22;32137;48.728;9.142;2023-04-24T04:55:04;10.60;99.90
46438;DHT22;32137;48.728;9.142;2023-04-24T04:57:30;10.60;99.90
46438;DHT22;32137;48.728;9.142;2023-04-24T04:59:55;10.70;99.90
46438;DHT22;32137;48.728;9.142;2023-04-24T05:02:21;10.60;99.90
46438;DHT22;32137;48.728;9.142;2023-04-24T05:04:46;10.50;99.90
46438;DHT22;32137;48.728;9.142;2023-04-24T05:07:12;10.50;99.90
46438;DHT22;32137;48.728;9.142;2023-04-24T05:09:37;10.20;99.90
46438;DHT22;32137;48.728;9.142;2023-04-24T05:12:03;10.20;99.90
46438;DHT22;32137;48.728;9.142;2023-04-24T05:14:28;10.50;99.90
46438;DHT22;32137;48.728;9.142;2023-04-24T05:16:54;10.40;99.90
46438;DHT22;32137;48.728;9.142;2023-04-24T05:19:19;10.30;99.90
46438;DHT22;32137;48.728;9.142;2023-04-24T05:21:45;10.00;99.90
46438;DHT22;32137;48.728;9.142;2023-04-24T05:24:10;10.30;99.90
46438;DHT22;32137;48.728;9.142;2023-04-24T05:26:36;10.20;99.90
46438;DHT22;32137;48.728;9.142;2023-04-24T05:29:01;10.10;99.90
46438;DHT22;32137;48.728;9.142;2023-04-24T05:31:27;10.20;99.90
46438;DHT22;32137;48.728;9.142;2023-04-24T05:33:52;9.90;99.90
46438;DHT22;32137;48.728;9.142;2023-04-24T05:36:18;10.00;99.90
46438;DHT22;32137;48.728;9.142;2023-04-24T05:38:43;9.80;99.90
46438;DHT22;32137;48.728;9.142;2023-04-24T05:41:09;9.80;99.90
46438;DHT22;32137;48.728;9.142;2023-04-24T05:43:34;10.10;99.90
46438;DHT22;32137;48.728;9.142;2023-04-24T05:46:00;10.20;99.90
46438;DHT22;32137;48.728;9.142;2023-04-24T05:48:25;9.80;99.90
46438;DHT22;32137;48.728;9.142;2023-04-24T05:50:51;9.80;99.90
46438;DHT22;32137;48.728;9.142;2023-04-24T05:53:18;10.10;99.90
46438;DHT22;32137;48.728;9.142;2023-04-24T05:55:43;9.80;99.90
46438;DHT22;32137;48.728;9.142;2023-04-24T05:58:08;10.10;99.90
46438;DHT22;32137;48.728;9.142;2023-04-24T06:00:34;10.00;99.90
46438;DHT22;32137;48.728;9.142;2023-04-24T06:03:00;9.90;99.90
46438;DHT22;32137;48.728;9.142;2023-04-24T06:05:25;9.90;99.90
46438;DHT22;32137;48.728;9.142;2023-04-24T06:07:51;10.00;99.90
46438;DHT22;32137;48.728;9.142;2023-04-24T06:10:17;9.70;99.90
46438;DHT22;32137;48.728;9.142;2023-04-24T06:12:42;9.90;99.90
46438;DHT22;32137;48.728;9.142;2023-04-24T06:15:08;10.10;99.90
46438;DHT22;32137;48.728;9.142;2023-04-24T06:17:34;10.00;99.90
46438;DHT22;32137;48.728;9.142;2023-04-24T06:19:59;10.00;99.90
46438;DHT22;32137;48.728;9.142;2023-04-24T06:22:25;9.80;99.90
46438;DHT22;32137;48.728;9.142;2023-04-24T06:24:50;10.10;99.90
46438;DHT22;32137;48.728;9.142;2023-04-24T06:27:15;9.70;99.90
46438;DHT22;32137;48.728;9.142;2023-04-24T06:29:41;9.70;99.90
46438;DHT22;32137;48.728;9.142;2023-04-24T06:32:06;10.00;99.90
46438;DHT22;32137;48.728;9.142;2023-04-24T06:34:32;9.70;99.90
46438;DHT22;32137;48.728;9.142;2023-04-24T06:36:59;9.80;99.90
46438;DHT22;32137;48.728;9.142;2023-04-24T06:39:25;10.10;99.90
46438;DHT22;32137;48.728;9.142;2023-04-24T06:41:50;10.20;99.90
46438;DHT22;32137;48.728;9.142;2023-04-24T06:44:16;10.00;99.90
46438;DHT22;32137;48.728;9.142;2023-04-24T06:46:42;9.90;99.90
46438;DHT22;32137;48.728;9.142;2023-04-24T06:49:07;9.90;99.90
46438;DHT22;32137;48.728;9.142;2023-04-24T06:51:33;9.90;99.90
46438;DHT22;32137;48.728;9.142;2023-04-24T06:53:59;10.30;99.90
46438;DHT22;32137;48.728;9.142;2023-04-24T06:56:25;10.30;99.90
46438;DHT22;32137;48.728;9.142;2023-04-24T06:58:50;10.60;99.90
46438;DHT22;32137;48.728;9.142;2023-04-24T07:01:16;10.20;99.90
46438;DHT22;32137;48.728;9.142;2023-04-24T07:03:44;10.30;99.90
46438;DHT22;32137;48.728;9.142;2023-04-24T07:06:10;10.30;99.90
46438;DHT22;32137;48.728;9.142;2023-04-24T07:08:39;10.20;99.90
46438;DHT22;32137;48.728;9.142;2023-04-24T07:11:06;10.10;99.90
46438;DHT22;32137;48.728;9.142;2023-04-24T07:13:32;10.40;99.90
46438;DHT22;32137;48.728;9.142;2023-04-24T07:16:00;10.60;99.90
46438;DHT22;32137;48.728;9.142;2023-04-24T07:18:26;10.40;99.90
46438;DHT22;32137;48.728;9.142;2023-04-24T07:20:51;10.10;99.90
46438;DHT22;32137;48.728;9.142;2023-04-24T07:23:17;10.40;99.90
46438;DHT22;32137;48.728;9.142;2023-04-24T07:25:43;10.40;99.90
46438;DHT22;32137;48.728;9.142;2023-04-24T07:28:09;10.40;99.90
46438;DHT22;32137;48.728;9.142;2023-04-24T07:30:34;10.50;99.90
46438;DHT22;32137;48.728;9.142;2023-04-24T07:33:00;10.20;99.90
46438;DHT22;32137;48.728;9.142;2023-04-24T07:35:26;10.30;99.90
46438;DHT22;32137;48.728;9.142;2023-04-24T07:37:54;10.00;99.90
46438;DHT22;32137;48.728;9.142;2023-04-24T07:40:20;9.70;99.90
46438;DHT22;32137;48.728;9.142;2023-04-24T07:42:46;10.00;99.90
46438;DHT22;32137;48.728;9.142;2023-04-24T07:45:13;10.20;99.90
46438;DHT22;32137;48.728;9.142;2023-04-24T07:47:39;9.90;99.90
46438;DHT22;32137;48.728;9.142;2023-04-24T07:50:08;10.40;99.90
46438;DHT22;32137;48.728;9.142;2023-04-24T07:52:34;10.00;99.90
46438;DHT22;32137;48.728;9.142;2023-04-24T07:54:59;10.30;99.90
46438;DHT22;32137;48.728;9.142;2023-04-24T07:57:25;10.20;99.90
46438;DHT22;32137;48.728;9.142;2023-04-24T07:59:51;10.30;99.90
46438;DHT22;32137;48.728;9.142;2023-04-24T08:02:16;10.20;99.90
46438;DHT22;32137;48.728;9.142;2023-04-24T08:04:42;10.00;99.90
46438;DHT22;32137;48.728;9.142;2023-04-24T08:07:07;10.10;99.90
46438;DHT22;32137;48.728;9.142;2023-04-24T08:09:33;10.00;99.90
46438;DHT22;32137;48.728;9.142;2023-04-24T08:11:59;9.90;99.90
46438;DHT22;32137;48.728;9.142;2023-04-24T08:14:24;10.10;99.90
46438;DHT22;32137;48.728;9.142;2023-04-24T08:16:50;9.70;99.90
46438;DHT22;32137;48.728;9.142;2023-04-24T08:19:16;9.90;99.90
46438;DHT22;32137;48.728;9.142;2023-04-24T08:21:41;9.80;99.90
46438;DHT22;32137;48.728;9.142;2023-04-24T08:24:07;9.70;99.90
46438;DHT22;32137;48.728;9.142;2023-04-24T08:26:33;9.10;99.90
46438;DHT22;32137;48.728;9.142;2023-04-24T08:28:59;8.90;99.90
46438;DHT22;32137;48.728;9.142;2023-04-24T08:31:24;8.90;99.90
46438;DHT22;32137;48.728;9.142;2023-04-24T08:33:51;9.20;99.90
46438;DHT22;32137;48.728;9.142;2023-04-24T08:36:16;9.00;99.90
46438;DHT22;32137;48.728;9.142;2023-04-24T08:38:42;9.40;99.90
46438;DHT22;32137;48.728;9.142;2023-04-24T08:41:07;9.20;99.90
46438;DHT22;32137;48.728;9.142;2023-04-24T08:43:34;9.10;99.90
46438;DHT22;32137;48.728;9.142;2023-04-24T08:46:01;9.60;99.90
46438;DHT22;32137;48.728;9.142;2023-04-24T08:48:27;9.40;99.90
46438;DHT22;32137;48.728;9.142;2023-04-24T08:50:52;9.40;99.90
46438;DHT22;32137;48.728;9.142;2023-04-24T08:53:18;9.20;99.90
46438;DHT22;32137;48.728;9.142;2023-04-24T08:55:47;9.10;99.90
46438;DHT22;32137;48.728;9.142;2023-04-24T08:58:13;9.40;99.90
46438;DHT22;32137;48.728;9.142;2023-04-24T09:00:39;9.30;99.90
46438;DHT22;32137;48.728;9.142;2023-04-24T09:03:04;9.60;99.90
46438;DHT22;32137;48.728;9.142;2023-04-24T09:05:31;9.50;99.90
46438;DHT22;32137;48.728;9.142;2023-04-24T09:07:57;9.50;99.90
46438;DHT22;32137;48.728;9.142;2023-04-24T09:10:24;9.50;99.90
46438;DHT22;32137;48.728;9.142;2023-04-24T09:12:50;9.90;99.90
46438;DHT22;32137;48.728;9.142;2023-04-24T09:15:16;9.30;99.90
46438;DHT22;32137;48.728;9.142;2023-04-24T09:17:42;9.40;99.90
46438;DHT22;32137;48.728;9.142;2023-04-24T09:20:07;9.30;99.90
46438;DHT22;32137;48.728;9.142;2023-04-24T09:22:33;9.30;99.90
46438;DHT22;32137;48.728;9.142;2023-04-24T09:25:16;9.30;99.90
46438;DHT22;32137;48.728;9.142;2023-04-24T09:27:42;9.00;99.90
46438;DHT22;32137;48.728;9.142;2023-04-24T09:30:09;9.20;99.90
46438;DHT22;32137;48.728;9.142;2023-04-24T09:32:35;9.20;99.90
46438;DHT22;32137;48.728;9.142;2023-04-24T09:35:07;9.00;99.90
46438;DHT22;32137;48.728;9.142;2023-04-24T09:37:40;9.40;99.90
46438;DHT22;32137;48.728;9.142;2023-04-24T09:40:07;9.00;99.90
46438;DHT22;32137;48.728;9.142;2023-04-24T09:42:33;8.90;99.90
46438;DHT22;32137;48.728;9.142;2023-04-24T09:44:58;9.20;99.90
46438;DHT22;32137;48.728;9.142;2023-04-24T09:47:24;9.50;99.90
46438;DHT22;32137;48.728;9.142;2023-04-24T09:49:49;9.40;99.90
46438;DHT22;32137;48.728;9.142;2023-04-24T09:52:15;9.80;99.90
46438;DHT22;32137;48.728;9.142;2023-04-24T09:54:40;9.90;99.90
46438;DHT22;32137;48.728;9.142;2023-04-24T09:57:07;9.40;99.90
46438;DHT22;32137;48.728;9.142;2023-04-24T09:59:33;9.20;99.90
46438;DHT22;32137;48.728;9.142;2023-04-24T10:02:01;9.70;99.90
46438;DHT22;32137;48.728;9.142;2023-04-24T10:04:27;9.70;99.90
46438;DHT22;32137;48.728;9.142;2023-04-24T10:06:54;9.60;99.90
46438;DHT22;32137;48.728;9.142;2023-04-24T10:09:20;9.30;99.90
46438;DHT22;32137;48.728;9.142;2023-04-24T10:11:47;9.20;99.90
46438;DHT22;32137;48.728;9.142;2023-04-24T10:14:13;8.90;99.90
46438;DHT22;32137;48.728;9.142;2023-04-24T10:16:39;9.00;99.90
46438;DHT22;32137;48.728;9.142;2023-04-24T10:19:05;9.00;99.90
46438;DHT22;32137;48.728;9.142;2023-04-24T10:21:31;9.10;99.90
46438;DHT22;32137;48.728;9.142;2023-04-24T10:23:57;9.50;99.90
46438;DHT22;32137;48.728;9.142;2023-04-24T10:26:22;9.30;99.90
46438;DHT22;32137;48.728;9.142;2023-04-24T10:28:49;9.60;99.90
46438;DHT22;32137;48.728;9.142;2023-04-24T10:31:14;9.80;99.90
46438;DHT22;32137;48.728;9.142;2023-04-24T10:33:43;9.60;99.90
46438;DHT22;32137;48.728;9.142;2023-04-24T10:36:09;9.80;99.90
46438;DHT22;32137;48.728;9.142;2023-04-24T10:38:35;9.50;99.90
46438;DHT22;32137;48.728;9.142;2023-04-24T10:43:34;9.80;99.90
46438;DHT22;32137;48.728;9.142;2023-04-24T10:46:00;9.70;99.90
46438;DHT22;32137;48.728;9.142;2023-04-24T10:48:27;9.80;99.90
46438;DHT22;32137;48.728;9.142;2023-04-24T10:50:52;10.10;99.90
46438;DHT22;32137;48.728;9.142;2023-04-24T10:53:19;9.90;99.90
46438;DHT22;32137;48.728;9.142;2023-04-24T10:58:11;9.50;99.90
46438;DHT22;32137;48.728;9.142;2023-04-24T11:00:40;9.70;99.90
46438;DHT22;32137;48.728;9.142;2023-04-24T11:03:06;9.80;99.90
46438;DHT22;32137;48.728;9.142;2023-04-24T11:08:26;9.10;99.90
46438;DHT22;32137;48.728;9.142;2023-04-24T11:10:56;9.20;99.90
46438;DHT22;32137;48.728;9.142;2023-04-24T11:13:24;9.00;99.90
46438;DHT22;32137;48.728;9.142;2023-04-24T11:18:37;9.40;99.90
46438;DHT22;32137;48.728;9.142;2023-04-24T11:21:09;9.20;99.90
46438;DHT22;32137;48.728;9.142;2023-04-24T11:23:36;9.10;99.90
46438;DHT22;32137;48.728;9.142;2023-04-24T11:26:12;9.50;99.90
46438;DHT22;32137;48.728;9.142;2023-04-24T11:28:43;9.30;99.90
46438;DHT22;32137;48.728;9.142;2023-04-24T11:33:53;10.30;99.90
46438;DHT22;32137;48.728;9.142;2023-04-24T11:36:19;10.90;99.90
46438;DHT22;32137;48.728;9.142;2023-04-24T11:38:44;11.00;99.90
46438;DHT22;32137;48.728;9.142;2023-04-24T11:41:10;10.80;99.90
46438;DHT22;32137;48.728;9.142;2023-04-24T11:43:36;10.60;99.90
46438;DHT22;32137;48.728;9.142;2023-04-24T11:46:02;9.90;99.90
46438;DHT22;32137;48.728;9.142;2023-04-24T11:48:28;9.40;99.90
46438;DHT22;32137;48.728;9.142;2023-04-24T11:50:54;9.10;99.90
46438;DHT22;32137;48.728;9.142;2023-04-24T11:53:20;9.50;99.90
46438;DHT22;32137;48.728;9.142;2023-04-24T11:55:46;9.70;99.90
46438;DHT22;32137;48.728;9.142;2023-04-24T11:58:15;10.00;99.90
46438;DHT22;32137;48.728;9.142;2023-04-24T12:00:45;10.40;99.90
46438;DHT22;32137;48.728;9.142;2023-04-24T12:03:11;11.10;99.90
46438;DHT22;32137;48.728;9.142;2023-04-24T12:05:37;11.60;99.90
46438;DHT22;32137;48.728;9.142;2023-04-24T12:08:03;11.70;99.90
46438;DHT22;32137;48.728;9.142;2023-04-24T12:10:29;11.00;99.90
46438;DHT22;32137;48.728;9.142;2023-04-24T12:12:55;10.60;99.90
46438;DHT22;32137;48.728;9.142;2023-04-24T12:15:21;10.20;99.90
46438;DHT22;32137;48.728;9.142;2023-04-24T12:17:47;9.70;99.90
46438;DHT22;32137;48.728;9.142;2023-04-24T12:20:13;9.50;99.90
46438;DHT22;32137;48.728;9.142;2023-04-24T12:25:09;9.50;99.90
46438;DHT22;32137;48.728;9.142;2023-04-24T12:27:35;9.80;99.90
46438;DHT22;32137;48.728;9.142;2023-04-24T12:30:02;9.80;99.90
46438;DHT22;32137;48.728;9.142;2023-04-24T12:32:28;9.50;99.90
46438;DHT22;32137;48.728;9.142;2023-04-24T12:34:54;9.50;99.90
46438;DHT22;32137;48.728;9.142;2023-04-24T12:37:20;9.50;99.90
46438;DHT22;32137;48.728;9.142;2023-04-24T12:42:31;9.40;99.90
46438;DHT22;32137;48.728;9.142;2023-04-24T12:45:00;9.50;99.90
46438;DHT22;32137;48.728;9.142;2023-04-24T12:47:29;9.50;99.90
46438;DHT22;32137;48.728;9.142;2023-04-24T12:49:54;9.60;99.90
46438;DHT22;32137;48.728;9.142;2023-04-24T12:52:23;9.60;99.90
46438;DHT22;32137;48.728;9.142;2023-04-24T12:54:50;9.30;99.90
46438;DHT22;32137;48.728;9.142;2023-04-24T12:57:15;9.20;99.90
46438;DHT22;32137;48.728;9.142;2023-04-24T12:59:41;9.20;99.90
46438;DHT22;32137;48.728;9.142;2023-04-24T13:02:06;9.10;99.90
46438;DHT22;32137;48.728;9.142;2023-04-24T13:04:32;9.50;99.90
46438;DHT22;32137;48.728;9.142;2023-04-24T13:06:58;9.40;99.90
46438;DHT22;32137;48.728;9.142;2023-04-24T13:09:23;9.30;99.90
46438;DHT22;32137;48.728;9.142;2023-04-24T13:11:49;9.40;99.90
46438;DHT22;32137;48.728;9.142;2023-04-24T13:14:15;9.50;99.90
46438;DHT22;32137;48.728;9.142;2023-04-24T13:16:40;9.50;99.90
46438;DHT22;32137;48.728;9.142;2023-04-24T13:19:06;9.50;99.90
46438;DHT22;32137;48.728;9.142;2023-04-24T13:21:31;10.00;99.90
46438;DHT22;32137;48.728;9.142;2023-04-24T13:23:57;10.20;99.90
46438;DHT22;32137;48.728;9.142;2023-04-24T13:26:22;10.60;99.90
46438;DHT22;32137;48.728;9.142;2023-04-24T13:28:48;13.30;99.90
46438;DHT22;32137;48.728;9.142;2023-04-24T13:31:13;13.80;99.90
46438;DHT22;32137;48.728;9.142;2023-04-24T13:33:39;12.90;99.90
46438;DHT22;32137;48.728;9.142;2023-04-24T13:36:05;12.00;99.90
46438;DHT22;32137;48.728;9.142;2023-04-24T13:38:31;11.70;99.90
46438;DHT22;32137;48.728;9.142;2023-04-24T13:40:56;11.10;99.90
46438;DHT22;32137;48.728;9.142;2023-04-24T13:43:23;10.50;99.90
46438;DHT22;32137;48.728;9.142;2023-04-24T13:45:57;10.30;99.90
46438;DHT22;32137;48.728;9.142;2023-04-24T13:48:24;10.10;99.90
46438;DHT22;32137;48.728;9.142;2023-04-24T13:50:50;10.00;99.90
46438;DHT22;32137;48.728;9.142;2023-04-24T13:53:15;9.90;99.90
46438;DHT22;32137;48.728;9.142;2023-04-24T13:55:41;10.20;99.90
46438;DHT22;32137;48.728;9.142;2023-04-24T13:58:06;9.90;99.90
46438;DHT22;32137;48.728;9.142;2023-04-24T14:00:32;10.20;99.90
46438;DHT22;32137;48.728;9.142;2023-04-24T14:02:58;11.30;99.90
46438;DHT22;32137;48.728;9.142;2023-04-24T14:05:23;11.50;99.90
46438;DHT22;32137;48.728;9.142;2023-04-24T14:07:50;12.20;99.90
46438;DHT22;32137;48.728;9.142;2023-04-24T14:10:16;12.20;99.90
46438;DHT22;32137;48.728;9.142;2023-04-24T14:12:41;12.00;99.90
46438;DHT22;32137;48.728;9.142;2023-04-24T14:15:07;12.10;99.90
46438;DHT22;32137;48.728;9.142;2023-04-24T14:17:33;11.30;99.90
46438;DHT22;32137;48.728;9.142;2023-04-24T14:19:59;11.10;99.90
46438;DHT22;32137;48.728;9.142;2023-04-24T14:22:25;10.60;99.90
46438;DHT22;32137;48.728;9.142;2023-04-24T14:24:51;10.60;99.90
46438;DHT22;32137;48.728;9.142;2023-04-24T14:27:16;10.20;99.90
46438;DHT22;32137;48.728;9.142;2023-04-24T14:29:42;10.40;99.90
46438;DHT22;32137;48.728;9.142;2023-04-24T14:32:07;10.30;99.90
46438;DHT22;32137;48.728;9.142;2023-04-24T14:34:34;10.60;99.90
46438;DHT22;32137;48.728;9.142;2023-04-24T14:36:59;10.30;99.90
46438;DHT22;32137;48.728;9.142;2023-04-24T14:39:25;10.80;99.90
46438;DHT22;32137;48.728;9.142;2023-04-24T14:41:50;10.80;99.90
46438;DHT22;32137;48.728;9.142;2023-04-24T14:44:16;11.60;99.90
46438;DHT22;32137;48.728;9.142;2023-04-24T14:46:42;11.60;99.90
46438;DHT22;32137;48.728;9.142;2023-04-24T14:49:08;11.80;99.90
46438;DHT22;32137;48.728;9.142;2023-04-24T14:51:35;11.50;99.90
46438;DHT22;32137;48.728;9.142;2023-04-24T14:54:01;11.60;99.90
46438;DHT22;32137;48.728;9.142;2023-04-24T14:56:26;11.70;99.90
46438;DHT22;32137;48.728;9.142;2023-04-24T14:58:52;11.70;99.90
46438;DHT22;32137;48.728;9.142;2023-04-24T15:01:17;12.00;99.90
46438;DHT22;32137;48.728;9.142;2023-04-24T15:03:43;12.20;99.90
46438;DHT22;32137;48.728;9.142;2023-04-24T15:06:09;11.80;99.90
46438;DHT22;32137;48.728;9.142;2023-04-24T15:08:34;12.30;99.90
46438;DHT22;32137;48.728;9.142;2023-04-24T15:11:00;12.10;99.90
46438;DHT22;32137;48.728;9.142;2023-04-24T15:13:25;11.50;99.90
46438;DHT22;32137;48.728;9.142;2023-04-24T15:15:51;11.30;99.90
46438;DHT22;32137;48.728;9.142;2023-04-24T15:18:16;11.10;99.90
46438;DHT22;32137;48.728;9.142;2023-04-24T15:20:42;11.40;99.90
46438;DHT22;32137;48.728;9.142;2023-04-24T15:23:08;10.90;99.90
46438;DHT22;32137;48.728;9.142;2023-04-24T15:25:35;11.10;99.90
46438;DHT22;32137;48.728;9.142;2023-04-24T15:28:05;11.30;99.90
46438;DHT22;32137;48.728;9.142;2023-04-24T15:30:31;11.00;99.90
46438;DHT22;32137;48.728;9.142;2023-04-24T15:32:57;10.70;99.90
46438;DHT22;32137;48.728;9.142;2023-04-24T15:35:22;10.20;99.90
46438;DHT22;32137;48.728;9.142;2023-04-24T15:37:48;10.70;99.90
46438;DHT22;32137;48.728;9.142;2023-04-24T15:40:13;10.60;99.90
46438;DHT22;32137;48.728;9.142;2023-04-24T15:42:41;9.70;99.90
46438;DHT22;32137;48.728;9.142;2023-04-24T15:45:07;10.00;99.90